Time;durP1;ratioP1;P1;durP2;ratioP2;P2;SDS_P1;SDS_P2;PMS_P1;PMS_P2;Temp;Humidity;BMP_temperature;BMP_pressure;BME280_temperature;BME280_humidity;BME280_pressure;Samples;Min_cycle;Max_cycle;Signal;HPM_P1;HPM_P2
2023/04/05 00:01:54;;;;;;;0.73;0.73;;;;;;;1.75;89.59;100993.13;5008634;28;20456;-52
2023/04/05 00:04:22;;;;;;;2.17;2.03;;;;;;;1.75;89.63;100995.75;5012095;28;20453;-52
2023/04/05 00:06:53;;;;;;;0.50;0.50;;;;;;;1.70;90.23;100989.53;5012084;28;20482;-52
2023/04/05 00:09:19;;;;;;;0.77;0.73;;;;;;;1.72;89.81;100990.44;5012549;28;20453;-52
2023/04/05 00:11:47;;;;;;;1.30;0.57;;;;;;;1.69;89.63;100986.91;5012448;28;20884;-52
2023/04/05 00:14:13;;;;;;;0.40;0.40;;;;;;;1.87;89.46;100986.34;5012387;28;20500;-52
2023/04/05 00:16:40;;;;;;;1.50;1.50;;;;;;;1.78;89.76;100994.91;5012181;28;20471;-52
2023/04/05 00:19:07;;;;;;;0.93;0.93;;;;;;;1.83;90.30;100990.66;5012114;28;20547;-52
2023/04/05 00:21:34;;;;;;;0.70;0.70;;;;;;;1.77;89.58;100987.91;5011989;28;20945;-51
2023/04/05 00:24:01;;;;;;;1.33;1.27;;;;;;;1.76;89.95;100988.75;5012252;28;20452;-53
2023/04/05 00:26:27;;;;;;;0.70;0.70;;;;;;;1.78;90.43;100984.41;5011862;28;20488;-52
2023/04/05 00:28:54;;;;;;;0.60;0.53;;;;;;;1.86;89.96;100982.84;5011998;28;20448;-51
2023/04/05 00:31:21;;;;;;;1.80;0.60;;;;;;;1.97;89.57;100976.03;5011888;28;20475;-52
2023/04/05 00:33:47;;;;;;;0.70;0.53;;;;;;;1.98;89.45;100983.06;5006587;28;20493;-53
2023/04/05 00:36:20;;;;;;;1.53;1.43;;;;;;;1.95;89.31;100977.75;4997028;28;20511;-52
2023/04/05 00:38:48;;;;;;;0.50;0.50;;;;;;;1.86;90.85;100977.59;5011869;28;20452;-52
2023/04/05 00:41:15;;;;;;;0.40;0.30;;;;;;;1.85;90.45;100978.44;5007025;28;20486;-53
2023/04/05 00:43:41;;;;;;;0.40;0.40;;;;;;;2.05;90.48;100974.41;5004233;28;20453;-52
2023/04/05 00:46:08;;;;;;;3.30;1.03;;;;;;;1.81;90.33;100979.25;5011316;28;20873;-52
2023/04/05 00:48:35;;;;;;;2.10;0.90;;;;;;;1.76;91.01;100986.13;5011922;28;20480;-52
2023/04/05 00:51:01;;;;;;;1.03;0.93;;;;;;;1.72;91.52;100977.34;5012003;28;20560;-52
2023/04/05 00:53:29;;;;;;;0.47;0.40;;;;;;;1.75;91.03;100980.00;5011582;28;20496;-52
2023/04/05 00:55:56;;;;;;;0.70;0.70;;;;;;;1.66;92.47;100972.00;5011377;28;20475;-52
2023/04/05 00:58:23;;;;;;;0.40;0.40;;;;;;;1.63;92.84;100974.53;5011371;28;20464;-54
2023/04/05 01:01:12;;;;;;;0.40;0.40;;;;;;;1.68;91.98;100967.66;5011391;28;20449;-53
2023/04/05 01:03:44;;;;;;;4.83;1.53;;;;;;;1.73;92.21;100970.38;5010167;28;20476;-53
2023/04/05 01:06:27;;;;;;;0.50;0.40;;;;;;;1.64;91.97;100967.56;5010848;28;20473;-51
2023/04/05 01:09:07;;;;;;;0.87;0.87;;;;;;;1.69;91.85;100972.06;5011128;28;20828;-52
2023/04/05 01:11:38;;;;;;;0.50;0.40;;;;;;;1.58;92.71;100964.84;5009727;28;20455;-52
2023/04/05 01:14:04;;;;;;;2.30;1.63;;;;;;;1.46;93.67;100961.13;5000245;28;20492;-52
2023/04/05 01:16:31;;;;;;;0.97;0.97;;;;;;;1.56;93.83;100964.81;5010850;28;21016;-52
2023/04/05 01:18:57;;;;;;;0.47;0.40;;;;;;;1.57;93.69;100965.72;5011200;28;20455;-53
2023/04/05 01:21:33;;;;;;;1.00;0.83;;;;;;;1.56;93.57;100962.19;5010884;28;20972;-52
2023/04/05 01:24:19;;;;;;;0.73;0.73;;;;;;;1.62;93.00;100954.44;5011384;28;20465;-52
2023/04/05 01:26:46;;;;;;;0.33;0.30;;;;;;;1.56;93.80;100954.34;4985085;28;20484;-52
2023/04/05 01:29:38;;;;;;;1.33;1.23;;;;;;;1.41;93.95;100951.44;5010982;28;20456;-52
2023/04/05 01:32:42;;;;;;;1.07;0.97;;;;;;;1.51;93.18;100950.78;5010626;28;20503;-52
2023/04/05 01:35:18;;;;;;;0.53;0.53;;;;;;;1.42;93.84;100942.72;4994885;28;20441;-52
2023/04/05 01:37:48;;;;;;;0.50;0.47;;;;;;;1.41;93.29;100941.84;5007778;28;21041;-53
2023/04/05 01:40:15;;;;;;;0.40;0.30;;;;;;;1.37;93.33;100933.88;5010597;28;20568;-52
2023/04/05 01:42:43;;;;;;;0.50;0.50;;;;;;;1.38;93.39;100930.44;4999521;28;20468;-52
2023/04/05 01:45:10;;;;;;;3.10;0.60;;;;;;;1.44;93.75;100933.16;5010808;28;20457;-52
2023/04/05 01:47:36;;;;;;;0.30;0.30;;;;;;;1.50;93.77;100941.13;5010531;28;20978;-53
2023/04/05 01:50:03;;;;;;;0.50;0.50;;;;;;;1.30;93.34;100934.63;5010580;28;20461;-52
2023/04/05 01:52:29;;;;;;;4.73;1.77;;;;;;;1.28;94.03;100933.72;5008920;28;20989;-52
2023/04/05 01:54:56;;;;;;;0.80;0.80;;;;;;;1.27;94.37;100930.22;5010343;28;20503;-52
2023/04/05 01:57:22;;;;;;;1.40;0.93;;;;;;;1.29;94.23;100928.50;5010411;28;20499;-52
2023/04/05 01:59:49;;;;;;;0.40;0.40;;;;;;;1.23;93.66;100930.13;5010890;28;20456;-52
2023/04/05 02:02:15;;;;;;;0.40;0.40;;;;;;;1.23;93.32;100932.72;5010313;28;20453;-52
2023/04/05 02:04:42;;;;;;;2.57;0.70;;;;;;;1.13;94.97;100936.94;5008773;28;20946;-52
2023/04/05 02:07:08;;;;;;;0.30;0.20;;;;;;;0.97;94.54;100933.13;5009930;28;20478;-53
2023/04/05 02:09:35;;;;;;;0.80;0.80;;;;;;;1.03;94.32;100933.22;5009919;28;20487;-52
2023/04/05 02:12:01;;;;;;;0.37;0.37;;;;;;;1.09;93.85;100932.47;5010192;28;20929;-52
2023/04/05 02:14:28;;;;;;;1.03;1.03;;;;;;;0.92;93.93;100934.75;5010111;28;20503;-52
2023/04/05 02:16:55;;;;;;;0.90;0.90;;;;;;;0.76;95.08;100935.28;5009517;28;21013;-54
2023/04/05 02:19:22;;;;;;;0.77;0.77;;;;;;;0.73;94.17;100937.84;5010197;28;20456;-52
2023/04/05 02:21:49;;;;;;;1.57;1.47;;;;;;;0.73;94.62;100932.59;5009904;28;20459;-53
2023/04/05 02:24:18;;;;;;;0.97;0.97;;;;;;;0.53;95.54;100932.16;5009697;28;20456;-53
2023/04/05 02:26:45;;;;;;;0.37;0.37;;;;;;;0.67;95.04;100933.34;5009672;28;20492;-53
2023/04/05 02:29:11;;;;;;;0.33;0.33;;;;;;;0.81;94.68;100929.28;5009737;28;20945;-52
2023/04/05 02:31:37;;;;;;;2.20;1.47;;;;;;;0.49;94.95;100923.34;5009971;28;20461;-53
2023/04/05 02:34:07;;;;;;;0.73;0.50;;;;;;;0.57;95.44;100924.44;5002747;28;20898;-51
2023/04/05 02:36:34;;;;;;;0.87;0.70;;;;;;;0.50;94.55;100917.28;4997136;28;21063;-52
2023/04/05 02:39:00;;;;;;;0.60;0.60;;;;;;;0.55;95.73;100923.50;5009790;28;20456;-53
2023/04/05 02:41:27;;;;;;;0.40;0.20;;;;;;;0.42;95.63;100921.47;5004533;28;20465;-52
2023/04/05 02:43:53;;;;;;;0.40;0.40;;;;;;;0.41;95.78;100924.94;5003919;28;20997;-51
2023/04/05 02:46:20;;;;;;;1.03;1.03;;;;;;;0.42;95.74;100923.22;5009561;28;20495;-52
2023/04/05 02:48:46;;;;;;;0.40;0.30;;;;;;;0.45;95.06;100918.03;5009549;28;20879;-53
2023/04/05 02:51:12;;;;;;;0.40;0.40;;;;;;;0.51;95.35;100921.66;5009368;28;20456;-52
2023/04/05 02:53:39;;;;;;;0.70;0.70;;;;;;;0.56;95.46;100921.78;5007922;28;20498;-52
2023/04/05 02:56:06;;;;;;;1.47;0.87;;;;;;;0.38;95.74;100917.00;5009459;28;20559;-52
2023/04/05 02:58:33;;;;;;;0.97;0.97;;;;;;;0.45;95.91;100916.31;5009347;28;20460;-53
2023/04/05 03:01:00;;;;;;;0.70;0.70;;;;;;;0.38;94.82;100916.13;5009469;28;20456;-53
2023/04/05 03:03:28;;;;;;;1.80;1.70;;;;;;;0.39;96.09;100915.25;5008780;28;20540;-52
2023/04/05 03:06:00;;;;;;;1.70;0.20;;;;;;;0.36;96.01;100903.00;5009176;28;20469;-52
2023/04/05 03:08:27;;;;;;;1.20;1.10;;;;;;;0.34;94.88;100917.78;5009270;28;20878;-53
2023/04/05 03:10:54;;;;;;;1.00;1.00;;;;;;;0.14;95.38;100919.97;5009458;28;20692;-52
2023/04/05 03:13:20;;;;;;;0.40;0.40;;;;;;;0.09;95.31;100923.28;5008910;28;21162;-52
2023/04/05 03:15:47;;;;;;;0.57;0.40;;;;;;;0.23;95.18;100924.50;5009244;28;20460;-52
2023/04/05 03:18:13;;;;;;;0.67;0.67;;;;;;;0.17;96.16;100922.63;5008968;28;20540;-52
2023/04/05 03:20:40;;;;;;;0.30;0.30;;;;;;;0.22;95.76;100912.28;5009198;28;20958;-52
2023/04/05 03:23:07;;;;;;;1.67;1.57;;;;;;;0.16;95.92;100906.91;5009197;28;20461;-52
2023/04/05 03:25:36;;;;;;;0.63;0.63;;;;;;;0.24;96.01;100908.84;5009236;28;20452;-53
2023/04/05 03:28:04;;;;;;;0.33;0.33;;;;;;;0.27;94.83;100900.19;5010572;28;20484;-52
2023/04/05 03:30:34;;;;;;;1.30;1.20;;;;;;;0.31;94.96;100909.88;5013192;28;20459;-51
2023/04/05 03:33:01;;;;;;;2.20;0.60;;;;;;;0.07;95.22;100911.91;5008214;28;20449;-52
2023/04/05 03:35:29;;;;;;;0.40;0.20;;;;;;;0.13;95.30;100912.06;4993689;28;20524;-52
2023/04/05 03:37:56;;;;;;;0.90;0.80;;;;;;;0.07;94.89;100911.91;5011421;28;20999;-52
2023/04/05 03:40:23;;;;;;;1.20;1.10;;;;;;;0.14;95.65;100909.50;5013174;28;20543;-53
2023/04/05 03:42:49;;;;;;;0.57;0.43;;;;;;;0.09;95.70;100905.00;5001986;28;20462;-52
2023/04/05 03:45:17;;;;;;;0.90;0.90;;;;;;;0.00;94.89;100916.13;5012829;28;20456;-53
2023/04/05 03:47:49;;;;;;;0.50;0.43;;;;;;;-0.10;95.17;100903.69;5012865;28;20478;-56
2023/04/05 03:50:16;;;;;;;2.47;1.80;;;;;;;-0.07;95.73;100907.25;5012893;28;20465;-53
2023/04/05 03:52:42;;;;;;;1.00;1.00;;;;;;;-0.20;95.61;100906.91;5011415;28;20579;-53
2023/04/05 03:55:09;;;;;;;1.57;1.07;;;;;;;-0.32;95.26;100907.47;5012616;28;20544;-52
2023/04/05 03:57:37;;;;;;;0.40;0.40;;;;;;;-0.45;95.80;100906.28;4986473;28;20478;-53
2023/04/05 04:00:14;;;;;;;3.90;0.90;;;;;;;-0.44;95.74;100907.16;5012449;28;20556;-53
2023/04/05 04:02:45;;;;;;;0.50;0.50;;;;;;;-0.40;96.19;100903.81;5012585;28;21096;-53
2023/04/05 04:05:14;;;;;;;1.33;0.63;;;;;;;-0.51;95.18;100908.75;5011362;28;20950;-52
2023/04/05 04:07:42;;;;;;;0.30;0.30;;;;;;;-0.35;94.88;100904.78;5012299;28;20480;-51
2023/04/05 04:10:10;;;;;;;2.17;0.60;;;;;;;-0.47;95.43;100913.19;5012299;28;20460;-52
2023/04/05 04:12:37;;;;;;;0.60;0.60;;;;;;;-0.57;95.54;100913.78;5012282;28;20453;-52
2023/04/05 04:15:04;;;;;;;0.50;0.50;;;;;;;-0.49;95.08;100914.00;5012144;28;21055;-52
2023/04/05 04:17:33;;;;;;;1.30;0.80;;;;;;;-0.34;93.72;100909.19;5012215;28;20476;-52
2023/04/05 04:20:00;;;;;;;4.07;0.50;;;;;;;-0.48;94.45;100911.44;5012097;28;20933;-52
2023/04/05 04:22:31;;;;;;;0.30;0.30;;;;;;;-0.42;94.73;100914.19;5006308;28;20973;-53
2023/04/05 04:25:01;;;;;;;0.30;0.20;;;;;;;0.15;95.73;100908.66;4998096;28;20949;-54
2023/04/05 04:27:29;;;;;;;11.13;1.13;;;;;;;-0.08;92.66;100908.09;5011600;28;20491;-53
2023/04/05 04:30:00;;;;;;;2.77;0.73;;;;;;;-0.39;93.17;100906.47;5011757;28;20452;-52
2023/04/05 04:32:49;;;;;;;1.70;0.97;;;;;;;-0.49;94.31;100904.44;5012053;28;20457;-52
2023/04/05 04:35:17;;;;;;;0.80;0.80;;;;;;;-0.65;94.20;100912.72;4982148;28;20606;-52
2023/04/05 04:37:52;;;;;;;4.03;0.43;;;;;;;-0.72;94.70;100910.78;5008988;28;20912;-52
2023/04/05 04:40:18;;;;;;;0.50;0.40;;;;;;;-0.48;94.44;100908.81;5011568;28;20506;-52
2023/04/05 04:42:47;;;;;;;0.40;0.40;;;;;;;-0.56;93.84;100912.06;5000912;28;20502;-52
2023/04/05 04:45:17;;;;;;;0.20;0.20;;;;;;;-0.66;93.77;100904.00;5011482;28;20448;-53
2023/04/05 04:47:46;;;;;;;0.30;0.20;;;;;;;-0.69;94.58;100910.84;5011280;28;20843;-52
2023/04/05 04:50:13;;;;;;;0.40;0.40;;;;;;;-0.66;95.12;100903.13;5011922;28;20579;-52
2023/04/05 04:52:39;;;;;;;1.13;1.10;;;;;;;-0.74;95.08;100902.03;5011809;28;20462;-54
2023/04/05 04:55:08;;;;;;;0.70;0.70;;;;;;;-0.81;95.54;100908.81;5011519;28;20496;-52
2023/04/05 04:57:35;;;;;;;0.30;0.30;;;;;;;-0.88;95.30;100906.00;5011287;28;20483;-52
2023/04/05 05:00:06;;;;;;;1.27;1.00;;;;;;;-0.75;95.21;100914.19;5011180;28;21036;-53
2023/04/05 05:02:33;;;;;;;0.20;0.20;;;;;;;-0.76;95.66;100919.38;5011310;28;20449;-53
2023/04/05 05:04:59;;;;;;;0.30;0.30;;;;;;;-0.83;95.37;100914.81;5011270;28;20460;-54
2023/04/05 05:07:26;;;;;;;1.33;0.77;;;;;;;-0.95;94.97;100924.09;5011142;28;20486;-54
2023/04/05 05:09:53;;;;;;;1.33;1.23;;;;;;;-1.03;94.84;100923.00;5011094;28;20878;-55
2023/04/05 05:12:20;;;;;;;0.50;0.50;;;;;;;-0.86;95.26;100918.22;5011057;28;21013;-55
2023/04/05 05:14:46;;;;;;;5.20;0.97;;;;;;;-0.86;94.69;100927.78;5011292;28;20499;-54
2023/04/05 05:17:13;;;;;;;0.50;0.47;;;;;;;-0.86;95.25;100928.66;5010909;28;20939;-54
2023/04/05 05:19:40;;;;;;;0.53;0.53;;;;;;;-0.87;96.13;100933.84;5011088;28;20480;-55
2023/04/05 05:22:06;;;;;;;0.47;0.40;;;;;;;-0.41;93.94;100918.59;5010818;28;20456;-55
2023/04/05 05:24:33;;;;;;;4.70;0.73;;;;;;;0.29;91.90;100920.31;5010727;28;20845;-54
2023/04/05 05:26:59;;;;;;;1.27;1.17;;;;;;;0.89;89.01;100919.88;5011268;28;20492;-53
2023/04/05 05:29:26;;;;;;;2.00;2.00;;;;;;;1.33;85.66;100919.84;5010635;28;20457;-52
2023/04/05 05:31:52;;;;;;;0.30;0.30;;;;;;;1.55;84.42;100918.53;5010795;28;20465;-53
2023/04/05 05:34:19;;;;;;;0.40;0.40;;;;;;;1.82;83.31;100915.50;5008484;28;20498;-52
2023/04/05 05:36:45;;;;;;;0.40;0.40;;;;;;;2.01;82.44;100920.19;4999799;28;20481;-53
2023/04/05 05:39:12;;;;;;;0.77;0.77;;;;;;;2.00;81.77;100912.28;5010490;28;20452;-54
2023/04/05 05:41:38;;;;;;;0.70;0.70;;;;;;;1.96;82.95;100916.63;5003870;28;20465;-52
2023/04/05 05:44:05;;;;;;;0.80;0.80;;;;;;;1.97;83.40;100914.88;5006212;28;20515;-52
2023/04/05 05:46:32;;;;;;;0.70;0.70;;;;;;;2.05;83.34;100913.25;5010786;28;20483;-53
2023/04/05 05:48:58;;;;;;;0.83;0.83;;;;;;;1.94;84.03;100920.06;5010507;28;20462;-52
2023/04/05 05:51:25;;;;;;;0.60;0.60;;;;;;;1.99;84.31;100927.16;5009984;28;20488;-54
2023/04/05 05:53:51;;;;;;;1.23;1.13;;;;;;;1.73;84.42;100928.44;5010178;28;20846;-55
2023/04/05 05:56:18;;;;;;;10.47;0.73;;;;;;;1.75;86.67;100916.25;5010218;28;20472;-52
2023/04/05 05:58:45;;;;;;;0.40;0.30;;;;;;;1.72;86.32;100924.06;5010064;28;20463;-53
2023/04/05 06:01:11;;;;;;;0.93;0.87;;;;;;;1.61;88.14;100925.59;5010639;28;20453;-52
2023/04/05 06:03:38;;;;;;;1.13;1.07;;;;;;;1.75;88.03;100924.97;5010001;28;20453;-52
2023/04/05 06:06:09;;;;;;;0.70;0.70;;;;;;;1.78;87.95;100927.69;5010340;28;20558;-52
2023/04/05 06:08:37;;;;;;;2.30;1.40;;;;;;;1.54;88.09;100936.84;5009875;28;20452;-52
2023/04/05 06:11:03;;;;;;;1.20;1.20;;;;;;;1.55;89.11;100941.22;5009942;28;20460;-53
2023/04/05 06:13:30;;;;;;;0.90;0.90;;;;;;;1.54;89.63;100942.06;5010120;28;20457;-55
2023/04/05 06:15:56;;;;;;;1.10;1.10;;;;;;;1.55;90.02;100939.47;5009894;28;20495;-52
2023/04/05 06:18:22;;;;;;;3.50;1.80;;;;;;;1.60;90.25;100942.19;5009951;28;20453;-52
2023/04/05 06:20:49;;;;;;;0.70;0.67;;;;;;;1.80;89.43;100938.19;5010242;28;20523;-52
2023/04/05 06:23:15;;;;;;;1.93;1.83;;;;;;;1.74;89.93;100932.81;5009629;28;20450;-52
2023/04/05 06:25:42;;;;;;;3.27;1.60;;;;;;;1.78;89.48;100935.53;5009513;28;20449;-53
2023/04/05 06:28:09;;;;;;;2.87;1.03;;;;;;;1.86;89.65;100935.66;5009893;28;20452;-52
2023/04/05 06:30:35;;;;;;;0.80;0.67;;;;;;;1.79;90.05;100933.81;5012526;28;20452;-53
2023/04/05 06:33:01;;;;;;;0.90;0.50;;;;;;;1.82;90.17;100940.84;5009790;28;20448;-52
2023/04/05 06:35:28;;;;;;;1.63;0.70;;;;;;;1.86;90.93;100934.78;4998092;28;20925;-53
2023/04/05 06:37:54;;;;;;;1.40;1.33;;;;;;;1.88;90.09;100940.91;5008028;28;21012;-52
2023/04/05 06:40:21;;;;;;;0.77;0.77;;;;;;;1.93;90.57;100932.31;5009381;28;20457;-54
2023/04/05 06:42:47;;;;;;;0.50;0.50;;;;;;;1.82;90.57;100932.97;4998515;28;21045;-52
2023/04/05 06:45:15;;;;;;;0.40;0.40;;;;;;;1.80;91.08;100926.81;5009635;28;20452;-54
2023/04/05 06:47:41;;;;;;;0.80;0.80;;;;;;;2.06;91.29;100936.00;5009337;28;20986;-52
2023/04/05 06:50:08;;;;;;;0.60;0.60;;;;;;;2.03;90.31;100930.69;5009517;28;20460;-52
2023/04/05 06:52:35;;;;;;;0.60;0.57;;;;;;;1.85;91.83;100938.25;5009124;28;20456;-54
2023/04/05 06:55:02;;;;;;;2.60;1.10;;;;;;;2.11;91.51;100936.94;5009020;28;20550;-52
2023/04/05 06:57:28;;;;;;;2.93;2.73;;;;;;;2.26;90.93;100931.94;5007746;28;20893;-52
2023/04/05 06:59:55;;;;;;;1.90;1.80;;;;;;;2.28;90.97;100930.22;5009416;28;20867;-54
2023/04/05 07:02:21;;;;;;;5.00;1.40;;;;;;;2.43;90.69;100934.81;5009254;28;20452;-52
2023/04/05 07:04:48;;;;;;;2.73;2.50;;;;;;;2.71;89.11;100932.56;5009193;28;20953;-52
2023/04/05 07:07:15;;;;;;;1.60;1.50;;;;;;;2.62;89.88;100923.75;5009098;28;20574;-54
2023/04/05 07:09:42;;;;;;;2.70;0.80;;;;;;;2.62;89.46;100931.63;5009050;28;20459;-54
2023/04/05 07:12:08;;;;;;;11.47;2.23;;;;;;;3.03;88.96;100933.91;5009286;28;20846;-52
2023/04/05 07:14:36;;;;;;;2.23;1.43;;;;;;;3.19;86.17;100919.19;5009308;28;20496;-54
2023/04/05 07:17:05;;;;;;;18.13;1.77;;;;;;;3.16;86.85;100927.94;5008915;28;20487;-53
2023/04/05 07:19:32;;;;;;;2.93;1.23;;;;;;;3.24;86.86;100923.63;5009348;28;20452;-53
2023/04/05 07:21:59;;;;;;;1.50;1.40;;;;;;;3.57;85.09;100917.00;4982194;28;20970;-53
2023/04/05 07:24:25;;;;;;;0.90;0.90;;;;;;;3.52;86.01;100918.66;5007940;28;20457;-53
2023/04/05 07:26:52;;;;;;;1.23;1.23;;;;;;;3.76;86.16;100912.78;5009240;28;20491;-55
2023/04/05 07:29:18;;;;;;;2.97;1.00;;;;;;;4.13;83.56;100906.06;5009255;28;20468;-53
2023/04/05 07:31:45;;;;;;;2.90;1.83;;;;;;;3.84;83.80;100912.00;5009115;28;20539;-52
2023/04/05 07:34:12;;;;;;;1.90;1.77;;;;;;;4.08;82.71;100910.41;4995234;28;20553;-54
2023/04/05 07:36:38;;;;;;;1.03;0.93;;;;;;;4.02;83.79;100902.47;4997115;28;20472;-53
2023/04/05 07:39:04;;;;;;;4.20;2.47;;;;;;;3.83;81.94;100907.56;5008897;28;20452;-53
2023/04/05 07:41:31;;;;;;;7.57;1.30;;;;;;;4.31;80.11;100914.09;5003331;28;20461;-52
2023/04/05 07:43:58;;;;;;;0.97;0.90;;;;;;;4.77;79.27;100909.09;5004077;28;20652;-52
2023/04/05 07:46:26;;;;;;;5.73;2.13;;;;;;;4.68;77.63;100903.78;5008888;28;20474;-55
2023/04/05 07:48:53;;;;;;;0.80;0.80;;;;;;;4.71;77.36;100920.47;5008783;28;20456;-53
2023/04/05 07:51:19;;;;;;;3.53;2.10;;;;;;;4.83;75.21;100914.41;5008579;28;20479;-52
2023/04/05 07:53:47;;;;;;;2.07;1.97;;;;;;;5.17;73.85;100910.13;5008616;28;21053;-53
2023/04/05 07:56:13;;;;;;;1.13;1.13;;;;;;;5.55;75.27;100904.97;5009132;28;20875;-54
2023/04/05 07:58:40;;;;;;;1.30;1.20;;;;;;;5.42;74.86;100915.50;5008835;28;20949;-54
2023/04/05 08:01:09;;;;;;;1.63;1.53;;;;;;;5.28;73.95;100913.69;5008894;28;20460;-53
2023/04/05 08:03:38;;;;;;;3.03;2.30;;;;;;;5.36;74.66;100916.38;5008601;28;20831;-52
2023/04/05 08:06:09;;;;;;;2.37;2.00;;;;;;;5.71;72.07;100907.63;5008862;28;20476;-55
2023/04/05 08:08:36;;;;;;;1.13;0.73;;;;;;;5.64;72.43;100906.75;5008450;28;20455;-53
2023/04/05 08:11:06;;;;;;;1.57;1.47;;;;;;;5.63;73.25;100910.28;5009219;28;20452;-53
2023/04/05 08:13:32;;;;;;;3.80;1.53;;;;;;;5.86;71.70;100903.25;5009478;28;20546;-53
2023/04/05 08:16:00;;;;;;;1.60;1.50;;;;;;;5.80;67.87;100903.25;5012329;28;20504;-52
2023/04/05 08:18:27;;;;;;;1.20;0.80;;;;;;;6.21;70.08;100895.34;5012284;28;21017;-52
2023/04/05 08:20:54;;;;;;;1.73;1.30;;;;;;;6.48;70.05;100894.44;5012576;28;20452;-55
2023/04/05 08:23:21;;;;;;;1.17;1.10;;;;;;;6.35;69.79;100892.69;5012402;28;20460;-53
2023/04/05 08:25:48;;;;;;;0.70;0.70;;;;;;;6.37;60.26;100885.66;5011853;28;20942;-53
2023/04/05 08:28:14;;;;;;;0.77;0.50;;;;;;;6.77;60.32;100888.19;5011892;28;20452;-54
2023/04/05 08:30:41;;;;;;;1.07;0.70;;;;;;;6.67;61.60;100892.63;5011812;28;20459;-53
2023/04/05 08:33:08;;;;;;;7.40;1.53;;;;;;;6.64;58.64;100890.00;5011826;28;20543;-54
2023/04/05 08:35:38;;;;;;;0.80;0.80;;;;;;;6.64;57.68;100887.34;4999128;28;20519;-54
2023/04/05 08:38:07;;;;;;;0.93;0.90;;;;;;;6.79;57.14;100889.94;5011924;28;20471;-55
2023/04/05 08:40:42;;;;;;;3.50;0.67;;;;;;;6.89;56.23;100881.97;5011703;28;20459;-54
2023/04/05 08:43:36;;;;;;;1.13;0.83;;;;;;;6.93;56.44;100891.66;4999683;28;20550;-53
2023/04/05 08:46:06;;;;;;;0.50;0.50;;;;;;;6.84;55.09;100890.78;5011586;28;20477;-53
2023/04/05 08:48:34;;;;;;;0.90;0.90;;;;;;;6.93;53.77;100881.06;5011889;28;20480;-55
2023/04/05 08:51:02;;;;;;;1.67;1.20;;;;;;;6.93;55.17;100883.72;5011417;28;20543;-55
2023/04/05 08:53:29;;;;;;;13.00;1.83;;;;;;;6.92;54.31;100884.59;5011448;28;20453;-52
2023/04/05 08:55:59;;;;;;;0.67;0.67;;;;;;;7.11;55.22;100883.63;5011755;28;20511;-53
2023/04/05 08:58:25;;;;;;;1.97;1.87;;;;;;;7.43;53.76;100879.06;5011462;28;20871;-54
2023/04/05 09:00:54;;;;;;;12.60;1.00;;;;;;;7.16;53.85;100884.50;5011441;28;21133;-53
2023/04/05 09:03:22;;;;;;;3.73;1.37;;;;;;;7.28;53.95;100881.78;5011456;28;20453;-53
2023/04/05 09:05:51;;;;;;;4.83;1.10;;;;;;;7.42;55.11;100881.72;5011185;28;20452;-54
2023/04/05 09:08:18;;;;;;;0.73;0.70;;;;;;;7.03;54.41;100874.88;5009843;28;20875;-54
2023/04/05 09:10:50;;;;;;;0.87;0.87;;;;;;;7.50;55.49;100879.88;5011536;28;20459;-53
2023/04/05 09:13:17;;;;;;;1.57;1.47;;;;;;;7.47;53.02;100869.31;5011080;28;20487;-53
2023/04/05 09:15:45;;;;;;;0.70;0.53;;;;;;;7.93;54.01;100874.25;5010932;28;20498;-53
2023/04/05 09:18:11;;;;;;;1.20;1.10;;;;;;;7.33;52.13;100873.81;5011057;28;20452;-52
2023/04/05 09:21:04;;;;;;;2.73;1.27;;;;;;;7.37;53.59;100864.97;5010826;28;21013;-53
2023/04/05 09:23:33;;;;;;;13.80;1.77;;;;;;;7.85;53.56;100869.06;4997739;28;20456;-54
2023/04/05 09:26:16;;;;;;;1.33;0.90;;;;;;;7.59;50.95;100866.59;5009740;28;20480;-53
2023/04/05 09:28:42;;;;;;;1.30;1.20;;;;;;;7.75;50.10;100866.47;5011045;28;20476;-53
2023/04/05 09:31:09;;;;;;;1.10;0.70;;;;;;;8.17;50.04;100863.47;5010495;28;20535;-53
2023/04/05 09:33:36;;;;;;;0.80;0.80;;;;;;;8.16;51.99;100868.78;5010755;28;20453;-55
2023/04/05 09:36:02;;;;;;;0.60;0.60;;;;;;;8.35;51.11;100867.72;4997484;28;20492;-53
2023/04/05 09:38:43;;;;;;;0.80;0.80;;;;;;;8.60;48.66;100866.56;5010467;28;20858;-53
2023/04/05 09:41:10;;;;;;;1.23;1.13;;;;;;;8.73;47.57;100861.13;5007744;28;20556;-54
2023/04/05 09:43:41;;;;;;;0.87;0.87;;;;;;;8.58;47.73;100864.84;5002575;28;21013;-53
2023/04/05 09:46:36;;;;;;;6.87;1.50;;;;;;;8.82;48.59;100861.91;5010545;28;20475;-53
2023/04/05 09:49:06;;;;;;;1.43;1.33;;;;;;;9.04;46.89;100859.84;5005752;28;20850;-53
2023/04/05 09:51:35;;;;;;;0.70;0.60;;;;;;;9.49;47.31;100852.16;5010464;28;20503;-53
2023/04/05 09:54:06;;;;;;;0.83;0.77;;;;;;;9.41;45.46;100851.38;5010066;28;20503;-54
2023/04/05 09:56:38;;;;;;;1.07;1.07;;;;;;;9.00;46.65;100854.63;5010136;28;20500;-54
2023/04/05 09:59:09;;;;;;;2.40;0.97;;;;;;;8.78;46.62;100854.03;5010221;28;20830;-54
2023/04/05 10:01:42;;;;;;;0.63;0.63;;;;;;;8.90;45.97;100846.75;5010473;28;20463;-53
2023/04/05 10:04:09;;;;;;;1.50;1.00;;;;;;;9.15;47.11;100849.09;5010213;28;20534;-53
2023/04/05 10:06:43;;;;;;;14.53;1.63;;;;;;;8.88;45.90;100853.88;5009760;28;21080;-53
2023/04/05 10:09:10;;;;;;;0.87;0.83;;;;;;;8.47;47.13;100862.31;5010083;28;20456;-54
2023/04/05 10:11:38;;;;;;;5.13;1.67;;;;;;;8.47;47.74;100850.81;5010051;28;20460;-54
2023/04/05 10:14:06;;;;;;;2.70;1.17;;;;;;;8.40;46.51;100855.34;5010477;28;20471;-54
2023/04/05 10:16:58;;;;;;;1.37;1.27;;;;;;;8.40;46.96;100851.81;5009904;28;20501;-53
2023/04/05 10:19:42;;;;;;;0.87;0.87;;;;;;;8.69;47.15;100840.88;5010179;28;20456;-53
2023/04/05 10:22:16;;;;;;;1.07;1.07;;;;;;;9.33;46.33;100837.38;4988773;28;20449;-53
2023/04/05 10:24:50;;;;;;;1.50;1.40;;;;;;;9.47;44.74;100838.03;5009656;28;20480;-53
2023/04/05 10:27:26;;;;;;;1.17;1.07;;;;;;;8.93;45.68;100837.91;5009644;28;20488;-53
2023/04/05 10:30:05;;;;;;;0.60;0.60;;;;;;;9.19;46.47;100838.44;5009879;28;20963;-53
2023/04/05 10:32:43;;;;;;;0.90;0.80;;;;;;;9.08;46.37;100836.84;5009690;28;20452;-53
2023/04/05 10:35:30;;;;;;;0.60;0.60;;;;;;;9.30;44.95;100827.66;5000524;28;20539;-55
2023/04/05 10:38:25;;;;;;;0.67;0.67;;;;;;;9.45;45.82;100832.72;5006661;28;20507;-53
2023/04/05 10:41:09;;;;;;;1.17;0.80;;;;;;;9.82;44.27;100825.97;5009287;28;20577;-53
2023/04/05 10:43:39;;;;;;;1.30;1.20;;;;;;;9.53;44.91;100824.66;5016717;28;20448;-54
2023/04/05 10:46:06;;;;;;;0.90;0.90;;;;;;;9.39;44.59;100832.84;5009188;28;20476;-54
2023/04/05 10:49:02;;;;;;;0.73;0.73;;;;;;;9.90;44.84;100821.41;5009810;28;20543;-55
2023/04/05 10:51:30;;;;;;;3.17;1.13;;;;;;;8.90;45.53;100828.22;4990231;28;20930;-53
2023/04/05 10:53:57;;;;;;;2.10;1.60;;;;;;;9.20;45.08;100821.63;5009127;28;20484;-53
2023/04/05 10:56:24;;;;;;;5.70;1.30;;;;;;;9.14;45.44;100824.34;5009123;28;20852;-52
2023/04/05 10:58:52;;;;;;;0.50;0.50;;;;;;;9.52;45.43;100819.38;5009496;28;20488;-53
2023/04/05 11:01:20;;;;;;;4.53;1.30;;;;;;;9.64;45.12;100822.72;5009000;28;20457;-53
2023/04/05 11:03:49;;;;;;;1.30;0.70;;;;;;;8.99;44.51;100819.28;5009106;28;20511;-55
2023/04/05 11:06:21;;;;;;;1.33;1.23;;;;;;;9.46;44.36;100813.28;5009233;28;20504;-55
2023/04/05 11:08:52;;;;;;;2.13;2.03;;;;;;;8.93;45.14;100813.19;5008774;28;20462;-53
2023/04/05 11:11:21;;;;;;;0.87;0.87;;;;;;;9.06;44.75;100807.69;5009454;28;20449;-54
2023/04/05 11:13:52;;;;;;;0.70;0.70;;;;;;;9.31;44.88;100797.56;5009338;28;20463;-53
2023/04/05 11:16:20;;;;;;;2.50;1.80;;;;;;;9.77;44.36;100800.38;5008856;28;21025;-53
2023/04/05 11:18:48;;;;;;;2.17;1.97;;;;;;;9.97;43.67;100809.78;5009258;28;20471;-55
2023/04/05 11:21:23;;;;;;;10.03;1.43;;;;;;;10.13;43.56;100803.28;5009000;28;20463;-53
2023/04/05 11:24:16;;;;;;;1.43;1.33;;;;;;;9.87;44.25;100805.50;5008839;28;20502;-53
2023/04/05 11:26:43;;;;;;;1.90;1.80;;;;;;;9.52;44.67;100809.66;5008711;28;20579;-54
2023/04/05 11:29:10;;;;;;;1.87;1.13;;;;;;;10.43;44.04;100806.31;5009710;28;20457;-56
2023/04/05 11:32:05;;;;;;;1.37;1.27;;;;;;;10.18;42.90;100800.56;4983327;28;20483;-56
2023/04/05 11:34:35;;;;;;;2.70;2.50;;;;;;;9.94;42.21;100808.06;5005180;28;20452;-56
2023/04/05 11:37:01;;;;;;;1.17;1.03;;;;;;;10.44;43.41;100789.47;5000184;28;20504;-55
2023/04/05 11:39:28;;;;;;;1.03;0.90;;;;;;;9.87;42.07;100798.47;5008728;28;20471;-55
2023/04/05 11:42:01;;;;;;;2.30;1.17;;;;;;;9.97;42.18;100789.41;4999920;28;20465;-55